aviador You're here:

KPNE Decoded Metar

PHILADELPHIA in PA, USA
Report Time2018-01-18 12:54:00
UTC Time2018-01-18 14:00:36
Flight Rules vfr VFR
Wind310° at 06 kt
W.Decomp.*RWY 33: 5.9 kt HW 0.8 kt LCW
RWY 24: 0.8 kt HW 5.9 kt RCW
W.Rank310° ranks 7
Current wind is below 310° avg. (8.3)
Visibility9999 m
Phenomena:N/A
Clouds:N/A
Expected CloudBase > 2,000 ft AGL from Temp-Dew spread
CeilingNone
Temp-8°C (ISA -23)
Dew Point-13°C (68% RH)
AAT-13.4°C
QNH1020 hPa
Density Alt-2,956 ft
Elevation92 ft
Report Wrong Elevation
Raw Report
KPNE 181254Z 31006KT 10SM CLR M08/M13 A3011 RMK AO2 SLP199
T10781133=

Extra information for KPNE:More info

Metar Taf Metar & Taf Last 4 Metars F.Rules Stats Wind Profile Meteogram Temp Stats Airport Information Weather charts Add Link Nearby VenuesMetar ALERT Operation Metar Decoded Social comments

AIRNAV info for KPNE